sensor_id;sensor_type;location;lat;lon;timestamp;temperature;humidity
39219;DHT22;24934;52.752;6.964;2023-05-29T00:01:33;8.10;99.90
39219;DHT22;24934;52.752;6.964;2023-05-29T00:03:59;8.10;99.90
39219;DHT22;24934;52.752;6.964;2023-05-29T00:06:25;8.00;99.90
39219;DHT22;24934;52.752;6.964;2023-05-29T00:08:50;8.00;99.90
39219;DHT22;24934;52.752;6.964;2023-05-29T00:11:16;7.90;99.90
39219;DHT22;24934;52.752;6.964;2023-05-29T00:13:42;7.90;99.90
39219;DHT22;24934;52.752;6.964;2023-05-29T00:16:07;7.90;99.90
39219;DHT22;24934;52.752;6.964;2023-05-29T00:18:35;7.80;99.90
39219;DHT22;24934;52.752;6.964;2023-05-29T00:21:01;7.80;99.90
39219;DHT22;24934;52.752;6.964;2023-05-29T00:23:27;7.80;99.90
39219;DHT22;24934;52.752;6.964;2023-05-29T00:25:53;7.70;99.90
39219;DHT22;24934;52.752;6.964;2023-05-29T00:28:21;7.70;99.90
39219;DHT22;24934;52.752;6.964;2023-05-29T00:30:47;7.70;99.90
39219;DHT22;24934;52.752;6.964;2023-05-29T00:33:12;7.70;99.90
39219;DHT22;24934;52.752;6.964;2023-05-29T00:35:38;7.70;99.90
39219;DHT22;24934;52.752;6.964;2023-05-29T00:38:05;7.60;99.90
39219;DHT22;24934;52.752;6.964;2023-05-29T00:40:31;7.60;99.90
39219;DHT22;24934;52.752;6.964;2023-05-29T00:42:57;7.60;99.90
39219;DHT22;24934;52.752;6.964;2023-05-29T00:45:22;7.60;99.90
39219;DHT22;24934;52.752;6.964;2023-05-29T00:47:48;7.60;99.90
39219;DHT22;24934;52.752;6.964;2023-05-29T00:50:16;7.60;99.90
39219;DHT22;24934;52.752;6.964;2023-05-29T00:52:44;7.60;99.90
39219;DHT22;24934;52.752;6.964;2023-05-29T00:55:11;7.60;99.90
39219;DHT22;24934;52.752;6.964;2023-05-29T00:57:36;7.60;99.90
39219;DHT22;24934;52.752;6.964;2023-05-29T01:00:06;7.50;99.90
39219;DHT22;24934;52.752;6.964;2023-05-29T01:02:40;7.60;99.90
39219;DHT22;24934;52.752;6.964;2023-05-29T01:05:06;7.60;99.90
39219;DHT22;24934;52.752;6.964;2023-05-29T01:07:35;7.50;99.90
39219;DHT22;24934;52.752;6.964;2023-05-29T01:10:01;7.50;99.90
39219;DHT22;24934;52.752;6.964;2023-05-29T01:18:21;7.60;99.90
39219;DHT22;24934;52.752;6.964;2023-05-29T01:26:21;7.50;99.90
39219;DHT22;24934;52.752;6.964;2023-05-29T01:28:52;7.50;99.90
39219;DHT22;24934;52.752;6.964;2023-05-29T01:31:23;7.50;99.90
39219;DHT22;24934;52.752;6.964;2023-05-29T01:33:57;7.50;99.90
39219;DHT22;24934;52.752;6.964;2023-05-29T01:36:24;7.40;99.90
39219;DHT22;24934;52.752;6.964;2023-05-29T01:38:56;7.40;99.90
39219;DHT22;24934;52.752;6.964;2023-05-29T01:41:23;7.40;99.90
39219;DHT22;24934;52.752;6.964;2023-05-29T01:43:52;7.30;99.90
39219;DHT22;24934;52.752;6.964;2023-05-29T01:46:19;7.40;99.90
39219;DHT22;24934;52.752;6.964;2023-05-29T01:48:45;7.40;99.90
39219;DHT22;24934;52.752;6.964;2023-05-29T01:51:12;7.30;99.90
39219;DHT22;24934;52.752;6.964;2023-05-29T01:53:38;7.30;99.90
39219;DHT22;24934;52.752;6.964;2023-05-29T01:56:08;7.30;99.90
39219;DHT22;24934;52.752;6.964;2023-05-29T01:58:34;7.30;99.90
39219;DHT22;24934;52.752;6.964;2023-05-29T02:01:04;7.30;99.90
39219;DHT22;24934;52.752;6.964;2023-05-29T02:03:30;7.20;99.90
39219;DHT22;24934;52.752;6.964;2023-05-29T02:05:57;7.20;99.90
39219;DHT22;24934;52.752;6.964;2023-05-29T02:08:24;7.20;99.90
39219;DHT22;24934;52.752;6.964;2023-05-29T02:10:49;7.10;99.90
39219;DHT22;24934;52.752;6.964;2023-05-29T02:13:16;7.10;99.90
39219;DHT22;24934;52.752;6.964;2023-05-29T02:15:42;7.10;99.90
39219;DHT22;24934;52.752;6.964;2023-05-29T02:18:14;7.10;99.90
39219;DHT22;24934;52.752;6.964;2023-05-29T02:20:40;7.10;99.90
39219;DHT22;24934;52.752;6.964;2023-05-29T02:23:08;7.00;99.90
39219;DHT22;24934;52.752;6.964;2023-05-29T02:25:34;7.00;99.90
39219;DHT22;24934;52.752;6.964;2023-05-29T02:27:59;6.90;99.90
39219;DHT22;24934;52.752;6.964;2023-05-29T02:30:25;6.90;99.90
39219;DHT22;24934;52.752;6.964;2023-05-29T02:32:51;6.90;99.90
39219;DHT22;24934;52.752;6.964;2023-05-29T02:35:17;6.90;99.90
39219;DHT22;24934;52.752;6.964;2023-05-29T02:37:46;6.90;99.90
39219;DHT22;24934;52.752;6.964;2023-05-29T02:40:13;6.90;99.90
39219;DHT22;24934;52.752;6.964;2023-05-29T02:42:38;7.00;99.90
39219;DHT22;24934;52.752;6.964;2023-05-29T02:45:04;6.90;99.90
39219;DHT22;24934;52.752;6.964;2023-05-29T02:47:30;7.00;99.90
39219;DHT22;24934;52.752;6.964;2023-05-29T02:49:56;7.00;99.90
39219;DHT22;24934;52.752;6.964;2023-05-29T02:52:22;7.00;99.90
39219;DHT22;24934;52.752;6.964;2023-05-29T02:54:49;6.90;99.90
39219;DHT22;24934;52.752;6.964;2023-05-29T02:57:15;6.90;99.90
39219;DHT22;24934;52.752;6.964;2023-05-29T02:59:41;6.90;99.90
39219;DHT22;24934;52.752;6.964;2023-05-29T03:02:07;6.90;99.90
39219;DHT22;24934;52.752;6.964;2023-05-29T03:04:35;6.90;99.90
39219;DHT22;24934;52.752;6.964;2023-05-29T03:07:04;6.90;99.90
39219;DHT22;24934;52.752;6.964;2023-05-29T03:09:30;6.90;99.90
39219;DHT22;24934;52.752;6.964;2023-05-29T03:11:58;6.90;99.90
39219;DHT22;24934;52.752;6.964;2023-05-29T03:14:26;6.90;99.90
39219;DHT22;24934;52.752;6.964;2023-05-29T03:16:53;6.90;99.90
39219;DHT22;24934;52.752;6.964;2023-05-29T03:19:19;6.90;99.90
39219;DHT22;24934;52.752;6.964;2023-05-29T03:21:45;6.90;99.90
39219;DHT22;24934;52.752;6.964;2023-05-29T03:24:12;6.90;99.90
39219;DHT22;24934;52.752;6.964;2023-05-29T03:26:41;6.90;99.90
39219;DHT22;24934;52.752;6.964;2023-05-29T03:29:07;6.90;99.90
39219;DHT22;24934;52.752;6.964;2023-05-29T03:31:33;6.90;99.90
39219;DHT22;24934;52.752;6.964;2023-05-29T03:33:59;6.90;99.90
39219;DHT22;24934;52.752;6.964;2023-05-29T03:36:30;6.90;99.90
39219;DHT22;24934;52.752;6.964;2023-05-29T03:38:57;6.80;99.90
39219;DHT22;24934;52.752;6.964;2023-05-29T03:41:23;6.80;99.90
39219;DHT22;24934;52.752;6.964;2023-05-29T03:43:48;6.80;99.90
39219;DHT22;24934;52.752;6.964;2023-05-29T03:46:14;6.80;99.90
39219;DHT22;24934;52.752;6.964;2023-05-29T03:48:40;6.80;99.90
39219;DHT22;24934;52.752;6.964;2023-05-29T03:51:06;6.80;99.90
39219;DHT22;24934;52.752;6.964;2023-05-29T03:53:32;6.80;99.90
39219;DHT22;24934;52.752;6.964;2023-05-29T03:55:57;6.80;99.90
39219;DHT22;24934;52.752;6.964;2023-05-29T03:58:23;6.90;99.90
39219;DHT22;24934;52.752;6.964;2023-05-29T04:00:49;6.90;99.90
39219;DHT22;24934;52.752;6.964;2023-05-29T04:03:15;6.90;99.90
39219;DHT22;24934;52.752;6.964;2023-05-29T04:05:40;6.90;99.90
39219;DHT22;24934;52.752;6.964;2023-05-29T04:08:06;6.90;99.90
39219;DHT22;24934;52.752;6.964;2023-05-29T04:10:34;6.90;99.90
39219;DHT22;24934;52.752;6.964;2023-05-29T04:13:00;7.00;99.90
39219;DHT22;24934;52.752;6.964;2023-05-29T04:15:29;7.00;99.90
39219;DHT22;24934;52.752;6.964;2023-05-29T04:17:58;7.00;99.90
39219;DHT22;24934;52.752;6.964;2023-05-29T04:20:25;7.10;99.90
39219;DHT22;24934;52.752;6.964;2023-05-29T04:22:51;7.10;99.90
39219;DHT22;24934;52.752;6.964;2023-05-29T04:25:17;7.20;99.90
39219;DHT22;24934;52.752;6.964;2023-05-29T04:27:44;7.20;99.90
39219;DHT22;24934;52.752;6.964;2023-05-29T04:30:14;7.30;99.90
39219;DHT22;24934;52.752;6.964;2023-05-29T04:32:43;7.40;99.90
39219;DHT22;24934;52.752;6.964;2023-05-29T04:35:09;7.50;99.90
39219;DHT22;24934;52.752;6.964;2023-05-29T04:37:36;7.70;99.90
39219;DHT22;24934;52.752;6.964;2023-05-29T04:40:06;7.90;99.90
39219;DHT22;24934;52.752;6.964;2023-05-29T04:42:36;8.00;99.90
39219;DHT22;24934;52.752;6.964;2023-05-29T04:45:03;8.20;99.90
39219;DHT22;24934;52.752;6.964;2023-05-29T04:47:31;8.40;99.90
39219;DHT22;24934;52.752;6.964;2023-05-29T04:50:05;8.50;99.90
39219;DHT22;24934;52.752;6.964;2023-05-29T04:52:30;8.70;99.90
39219;DHT22;24934;52.752;6.964;2023-05-29T04:55:04;8.80;99.90
39219;DHT22;24934;52.752;6.964;2023-05-29T04:57:30;8.90;99.90
39219;DHT22;24934;52.752;6.964;2023-05-29T04:59:56;9.00;99.90
39219;DHT22;24934;52.752;6.964;2023-05-29T05:02:25;9.10;99.90
39219;DHT22;24934;52.752;6.964;2023-05-29T05:04:50;9.20;99.90
39219;DHT22;24934;52.752;6.964;2023-05-29T05:07:16;9.50;99.90
39219;DHT22;24934;52.752;6.964;2023-05-29T05:09:42;9.50;99.90
39219;DHT22;24934;52.752;6.964;2023-05-29T05:12:08;9.60;99.90
39219;DHT22;24934;52.752;6.964;2023-05-29T05:14:34;9.60;99.90
39219;DHT22;24934;52.752;6.964;2023-05-29T05:17:00;9.60;99.90
39219;DHT22;24934;52.752;6.964;2023-05-29T05:19:25;9.70;99.90
39219;DHT22;24934;52.752;6.964;2023-05-29T05:21:51;9.80;99.90
39219;DHT22;24934;52.752;6.964;2023-05-29T05:24:17;9.80;99.90
39219;DHT22;24934;52.752;6.964;2023-05-29T05:26:43;9.70;99.90
39219;DHT22;24934;52.752;6.964;2023-05-29T05:29:08;9.70;99.90
39219;DHT22;24934;52.752;6.964;2023-05-29T05:31:36;9.80;99.90
39219;DHT22;24934;52.752;6.964;2023-05-29T05:34:02;9.80;99.90
39219;DHT22;24934;52.752;6.964;2023-05-29T05:36:28;9.90;99.90
39219;DHT22;24934;52.752;6.964;2023-05-29T05:38:53;9.90;99.90
39219;DHT22;24934;52.752;6.964;2023-05-29T05:41:19;10.00;99.90
39219;DHT22;24934;52.752;6.964;2023-05-29T05:43:46;10.10;99.90
39219;DHT22;24934;52.752;6.964;2023-05-29T05:46:12;10.20;99.90
39219;DHT22;24934;52.752;6.964;2023-05-29T05:48:40;10.30;99.90
39219;DHT22;24934;52.752;6.964;2023-05-29T05:51:06;10.30;99.90
39219;DHT22;24934;52.752;6.964;2023-05-29T05:53:32;10.40;99.90
39219;DHT22;24934;52.752;6.964;2023-05-29T05:55:57;10.50;99.90
39219;DHT22;24934;52.752;6.964;2023-05-29T05:58:25;10.50;99.90
39219;DHT22;24934;52.752;6.964;2023-05-29T06:00:51;10.70;99.90
39219;DHT22;24934;52.752;6.964;2023-05-29T06:03:18;10.70;99.90
39219;DHT22;24934;52.752;6.964;2023-05-29T06:05:43;10.80;99.90
39219;DHT22;24934;52.752;6.964;2023-05-29T06:08:09;10.90;99.90
39219;DHT22;24934;52.752;6.964;2023-05-29T06:10:35;10.90;99.90
39219;DHT22;24934;52.752;6.964;2023-05-29T06:13:01;11.00;99.90
39219;DHT22;24934;52.752;6.964;2023-05-29T06:15:27;11.00;99.90
39219;DHT22;24934;52.752;6.964;2023-05-29T06:17:52;11.10;99.90
39219;DHT22;24934;52.752;6.964;2023-05-29T06:20:21;11.10;99.90
39219;DHT22;24934;52.752;6.964;2023-05-29T06:22:47;11.10;99.90
39219;DHT22;24934;52.752;6.964;2023-05-29T06:25:16;11.10;99.90
39219;DHT22;24934;52.752;6.964;2023-05-29T06:27:44;11.20;99.90
39219;DHT22;24934;52.752;6.964;2023-05-29T06:30:10;11.30;99.90
39219;DHT22;24934;52.752;6.964;2023-05-29T06:32:36;11.30;99.90
39219;DHT22;24934;52.752;6.964;2023-05-29T06:35:05;11.40;99.90
39219;DHT22;24934;52.752;6.964;2023-05-29T06:37:32;11.50;99.90
39219;DHT22;24934;52.752;6.964;2023-05-29T06:39:57;11.50;99.90
39219;DHT22;24934;52.752;6.964;2023-05-29T06:42:24;11.60;99.90
39219;DHT22;24934;52.752;6.964;2023-05-29T06:44:50;11.70;99.90
39219;DHT22;24934;52.752;6.964;2023-05-29T06:47:16;11.70;99.90
39219;DHT22;24934;52.752;6.964;2023-05-29T06:49:41;11.80;99.90
39219;DHT22;24934;52.752;6.964;2023-05-29T06:52:09;11.80;99.90
39219;DHT22;24934;52.752;6.964;2023-05-29T06:54:35;11.90;99.90
39219;DHT22;24934;52.752;6.964;2023-05-29T06:57:01;12.00;99.90
39219;DHT22;24934;52.752;6.964;2023-05-29T06:59:26;12.10;99.90
39219;DHT22;24934;52.752;6.964;2023-05-29T07:01:52;12.20;99.90
39219;DHT22;24934;52.752;6.964;2023-05-29T07:04:17;12.40;99.90
39219;DHT22;24934;52.752;6.964;2023-05-29T07:06:43;12.40;99.90
39219;DHT22;24934;52.752;6.964;2023-05-29T07:09:12;12.40;99.90
39219;DHT22;24934;52.752;6.964;2023-05-29T07:11:38;12.40;99.90
39219;DHT22;24934;52.752;6.964;2023-05-29T07:14:04;12.50;99.90
39219;DHT22;24934;52.752;6.964;2023-05-29T07:16:33;12.60;99.90
39219;DHT22;24934;52.752;6.964;2023-05-29T07:18:58;12.70;99.90
39219;DHT22;24934;52.752;6.964;2023-05-29T07:21:25;12.70;99.90
39219;DHT22;24934;52.752;6.964;2023-05-29T07:23:51;12.90;99.90
39219;DHT22;24934;52.752;6.964;2023-05-29T07:26:16;13.00;99.90
39219;DHT22;24934;52.752;6.964;2023-05-29T07:28:42;13.10;99.90
39219;DHT22;24934;52.752;6.964;2023-05-29T07:31:08;13.10;99.90
39219;DHT22;24934;52.752;6.964;2023-05-29T07:33:39;13.20;99.90
39219;DHT22;24934;52.752;6.964;2023-05-29T07:36:05;13.30;99.90
39219;DHT22;24934;52.752;6.964;2023-05-29T07:38:34;13.40;99.90
39219;DHT22;24934;52.752;6.964;2023-05-29T07:40:59;13.50;99.90
39219;DHT22;24934;52.752;6.964;2023-05-29T07:43:25;13.60;99.90
39219;DHT22;24934;52.752;6.964;2023-05-29T07:45:51;13.90;99.90
39219;DHT22;24934;52.752;6.964;2023-05-29T07:48:16;14.00;99.90
39219;DHT22;24934;52.752;6.964;2023-05-29T07:50:42;14.30;99.90
39219;DHT22;24934;52.752;6.964;2023-05-29T07:53:08;14.60;99.90
39219;DHT22;24934;52.752;6.964;2023-05-29T07:55:34;14.70;99.90
39219;DHT22;24934;52.752;6.964;2023-05-29T07:58:00;14.60;99.90
39219;DHT22;24934;52.752;6.964;2023-05-29T08:00:27;14.80;99.90
39219;DHT22;24934;52.752;6.964;2023-05-29T08:02:54;15.30;99.90
39219;DHT22;24934;52.752;6.964;2023-05-29T08:05:22;15.70;99.90
39219;DHT22;24934;52.752;6.964;2023-05-29T08:07:47;15.90;99.90
39219;DHT22;24934;52.752;6.964;2023-05-29T08:10:14;16.20;99.90
39219;DHT22;24934;52.752;6.964;2023-05-29T08:12:39;16.60;99.90
39219;DHT22;24934;52.752;6.964;2023-05-29T08:15:05;17.40;99.90
39219;DHT22;24934;52.752;6.964;2023-05-29T08:17:31;18.00;99.90
39219;DHT22;24934;52.752;6.964;2023-05-29T08:20:00;18.60;99.90
39219;DHT22;24934;52.752;6.964;2023-05-29T08:22:29;18.50;99.90
39219;DHT22;24934;52.752;6.964;2023-05-29T08:24:59;18.70;99.90
39219;DHT22;24934;52.752;6.964;2023-05-29T08:27:25;19.00;99.90
39219;DHT22;24934;52.752;6.964;2023-05-29T08:29:50;19.20;99.90
39219;DHT22;24934;52.752;6.964;2023-05-29T08:32:16;19.70;99.90
39219;DHT22;24934;52.752;6.964;2023-05-29T08:34:41;19.90;99.90
39219;DHT22;24934;52.752;6.964;2023-05-29T08:37:07;19.90;99.90
39219;DHT22;24934;52.752;6.964;2023-05-29T08:39:33;19.90;99.90
39219;DHT22;24934;52.752;6.964;2023-05-29T08:42:07;20.20;99.90
39219;DHT22;24934;52.752;6.964;2023-05-29T08:44:33;19.90;99.90
39219;DHT22;24934;52.752;6.964;2023-05-29T08:47:02;19.90;99.90
39219;DHT22;24934;52.752;6.964;2023-05-29T08:49:29;20.10;99.90
39219;DHT22;24934;52.752;6.964;2023-05-29T08:52:23;20.90;99.90
39219;DHT22;24934;52.752;6.964;2023-05-29T08:54:54;20.70;99.90
39219;DHT22;24934;52.752;6.964;2023-05-29T08:57:21;20.90;99.90
39219;DHT22;24934;52.752;6.964;2023-05-29T08:59:48;21.10;99.90
39219;DHT22;24934;52.752;6.964;2023-05-29T09:02:16;21.90;99.90
39219;DHT22;24934;52.752;6.964;2023-05-29T09:04:42;21.60;99.20
39219;DHT22;24934;52.752;6.964;2023-05-29T09:07:13;22.00;99.20
39219;DHT22;24934;52.752;6.964;2023-05-29T09:09:40;21.40;98.80
39219;DHT22;24934;52.752;6.964;2023-05-29T09:12:06;21.70;98.90
39219;DHT22;24934;52.752;6.964;2023-05-29T09:14:40;22.10;98.60
39219;DHT22;24934;52.752;6.964;2023-05-29T09:17:10;22.50;98.00
39219;DHT22;24934;52.752;6.964;2023-05-29T09:19:37;22.40;97.30
39219;DHT22;24934;52.752;6.964;2023-05-29T09:22:06;22.50;97.30
39219;DHT22;24934;52.752;6.964;2023-05-29T09:24:33;22.30;97.80
39219;DHT22;24934;52.752;6.964;2023-05-29T09:27:01;22.50;97.50
39219;DHT22;24934;52.752;6.964;2023-05-29T09:29:30;23.10;96.40
39219;DHT22;24934;52.752;6.964;2023-05-29T09:31:56;22.70;96.30
39219;DHT22;24934;52.752;6.964;2023-05-29T09:34:24;22.60;96.80
39219;DHT22;24934;52.752;6.964;2023-05-29T09:36:52;22.50;95.90
39219;DHT22;24934;52.752;6.964;2023-05-29T09:39:18;22.40;95.80
39219;DHT22;24934;52.752;6.964;2023-05-29T09:41:45;22.00;96.40
39219;DHT22;24934;52.752;6.964;2023-05-29T09:44:15;21.70;95.90
39219;DHT22;24934;52.752;6.964;2023-05-29T09:46:42;21.50;96.10
39219;DHT22;24934;52.752;6.964;2023-05-29T09:49:14;21.00;96.20
39219;DHT22;24934;52.752;6.964;2023-05-29T09:51:42;20.90;98.00
39219;DHT22;24934;52.752;6.964;2023-05-29T09:54:14;21.10;98.10
39219;DHT22;24934;52.752;6.964;2023-05-29T09:56:42;21.20;97.90
39219;DHT22;24934;52.752;6.964;2023-05-29T09:59:11;21.10;98.90
39219;DHT22;24934;52.752;6.964;2023-05-29T10:01:40;20.80;99.10
39219;DHT22;24934;52.752;6.964;2023-05-29T10:04:10;20.70;98.80
39219;DHT22;24934;52.752;6.964;2023-05-29T10:06:46;20.80;98.70
39219;DHT22;24934;52.752;6.964;2023-05-29T10:09:18;20.70;98.20
39219;DHT22;24934;52.752;6.964;2023-05-29T10:11:48;20.60;98.20
39219;DHT22;24934;52.752;6.964;2023-05-29T10:14:20;20.60;97.40
39219;DHT22;24934;52.752;6.964;2023-05-29T10:16:49;20.20;97.00
39219;DHT22;24934;52.752;6.964;2023-05-29T10:19:27;20.10;97.90
39219;DHT22;24934;52.752;6.964;2023-05-29T10:21:54;20.40;97.80
39219;DHT22;24934;52.752;6.964;2023-05-29T10:24:21;20.40;98.40
39219;DHT22;24934;52.752;6.964;2023-05-29T10:26:49;21.00;98.50
39219;DHT22;24934;52.752;6.964;2023-05-29T10:29:38;20.90;96.90
39219;DHT22;24934;52.752;6.964;2023-05-29T10:37:52;21.20;96.20
39219;DHT22;24934;52.752;6.964;2023-05-29T10:40:26;21.30;96.70
39219;DHT22;24934;52.752;6.964;2023-05-29T10:42:53;21.50;96.70
39219;DHT22;24934;52.752;6.964;2023-05-29T10:50:45;22.60;97.30
39219;DHT22;24934;52.752;6.964;2023-05-29T10:53:16;22.60;94.40
39219;DHT22;24934;52.752;6.964;2023-05-29T10:55:44;22.50;95.10
39219;DHT22;24934;52.752;6.964;2023-05-29T10:58:18;22.60;95.70
39219;DHT22;24934;52.752;6.964;2023-05-29T11:00:45;22.10;95.20
39219;DHT22;24934;52.752;6.964;2023-05-29T11:03:22;22.10;95.00
39219;DHT22;24934;52.752;6.964;2023-05-29T11:06:07;22.40;95.50
39219;DHT22;24934;52.752;6.964;2023-05-29T11:08:43;22.60;95.40
39219;DHT22;24934;52.752;6.964;2023-05-29T11:11:13;22.90;94.70
39219;DHT22;24934;52.752;6.964;2023-05-29T11:13:39;23.20;94.80
39219;DHT22;24934;52.752;6.964;2023-05-29T11:16:14;22.90;95.00
39219;DHT22;24934;52.752;6.964;2023-05-29T11:18:45;22.90;95.30
39219;DHT22;24934;52.752;6.964;2023-05-29T11:26:45;21.90;95.90
39219;DHT22;24934;52.752;6.964;2023-05-29T11:29:11;21.50;96.00
39219;DHT22;24934;52.752;6.964;2023-05-29T11:31:39;21.80;96.60
39219;DHT22;24934;52.752;6.964;2023-05-29T11:34:09;21.90;97.20
39219;DHT22;24934;52.752;6.964;2023-05-29T11:36:36;22.20;95.70
39219;DHT22;24934;52.752;6.964;2023-05-29T11:39:02;22.10;93.80
39219;DHT22;24934;52.752;6.964;2023-05-29T11:41:29;21.50;95.00
39219;DHT22;24934;52.752;6.964;2023-05-29T11:44:04;21.50;95.30
39219;DHT22;24934;52.752;6.964;2023-05-29T11:46:31;21.40;95.80
39219;DHT22;24934;52.752;6.964;2023-05-29T11:48:58;21.40;96.80
39219;DHT22;24934;52.752;6.964;2023-05-29T11:51:24;21.10;97.10
39219;DHT22;24934;52.752;6.964;2023-05-29T11:53:50;21.20;96.70
39219;DHT22;24934;52.752;6.964;2023-05-29T11:56:18;21.40;95.60
39219;DHT22;24934;52.752;6.964;2023-05-29T11:58:45;20.90;96.20
39219;DHT22;24934;52.752;6.964;2023-05-29T12:01:11;21.00;96.80
39219;DHT22;24934;52.752;6.964;2023-05-29T12:03:40;20.80;97.10
39219;DHT22;24934;52.752;6.964;2023-05-29T12:06:08;21.00;97.00
39219;DHT22;24934;52.752;6.964;2023-05-29T12:08:34;21.10;96.10
39219;DHT22;24934;52.752;6.964;2023-05-29T12:11:00;21.10;95.90
39219;DHT22;24934;52.752;6.964;2023-05-29T12:13:26;21.00;95.80
39219;DHT22;24934;52.752;6.964;2023-05-29T12:15:53;21.00;95.90
39219;DHT22;24934;52.752;6.964;2023-05-29T12:18:20;21.20;95.40
39219;DHT22;24934;52.752;6.964;2023-05-29T12:20:45;21.00;94.80
39219;DHT22;24934;52.752;6.964;2023-05-29T12:23:11;21.10;96.20
39219;DHT22;24934;52.752;6.964;2023-05-29T12:25:40;21.00;97.00
39219;DHT22;24934;52.752;6.964;2023-05-29T12:28:06;21.00;95.00
39219;DHT22;24934;52.752;6.964;2023-05-29T12:30:37;21.00;95.60
39219;DHT22;24934;52.752;6.964;2023-05-29T12:33:04;21.00;96.10
39219;DHT22;24934;52.752;6.964;2023-05-29T12:35:31;20.90;96.80
39219;DHT22;24934;52.752;6.964;2023-05-29T12:38:02;20.70;95.90
39219;DHT22;24934;52.752;6.964;2023-05-29T12:40:33;20.80;96.50
39219;DHT22;24934;52.752;6.964;2023-05-29T12:43:06;20.90;95.30
39219;DHT22;24934;52.752;6.964;2023-05-29T12:45:34;20.90;96.20
39219;DHT22;24934;52.752;6.964;2023-05-29T12:48:01;20.90;97.10
39219;DHT22;24934;52.752;6.964;2023-05-29T12:50:49;20.70;97.50
39219;DHT22;24934;52.752;6.964;2023-05-29T12:53:15;21.00;97.00
39219;DHT22;24934;52.752;6.964;2023-05-29T12:55:42;21.20;96.30
39219;DHT22;24934;52.752;6.964;2023-05-29T12:58:09;21.40;95.90
39219;DHT22;24934;52.752;6.964;2023-05-29T13:00:36;21.50;95.20
39219;DHT22;24934;52.752;6.964;2023-05-29T13:03:04;21.10;94.90
39219;DHT22;24934;52.752;6.964;2023-05-29T13:05:30;20.90;96.30
39219;DHT22;24934;52.752;6.964;2023-05-29T13:07:56;20.80;96.20
39219;DHT22;24934;52.752;6.964;2023-05-29T13:10:22;20.70;95.50
39219;DHT22;24934;52.752;6.964;2023-05-29T13:12:49;21.00;94.20
39219;DHT22;24934;52.752;6.964;2023-05-29T13:15:21;20.90;95.60
39219;DHT22;24934;52.752;6.964;2023-05-29T13:17:46;20.80;96.00
39219;DHT22;24934;52.752;6.964;2023-05-29T13:20:13;20.90;97.10
39219;DHT22;24934;52.752;6.964;2023-05-29T13:22:40;21.40;96.80
39219;DHT22;24934;52.752;6.964;2023-05-29T13:25:08;21.50;96.10
39219;DHT22;24934;52.752;6.964;2023-05-29T13:27:39;21.20;94.30
39219;DHT22;24934;52.752;6.964;2023-05-29T13:30:08;21.00;95.60
39219;DHT22;24934;52.752;6.964;2023-05-29T13:32:34;20.90;96.50
39219;DHT22;24934;52.752;6.964;2023-05-29T13:35:01;21.00;96.50
39219;DHT22;24934;52.752;6.964;2023-05-29T13:37:27;20.70;94.40
39219;DHT22;24934;52.752;6.964;2023-05-29T13:39:53;20.50;95.70
39219;DHT22;24934;52.752;6.964;2023-05-29T13:42:21;20.50;95.30
39219;DHT22;24934;52.752;6.964;2023-05-29T13:44:49;20.70;96.50
39219;DHT22;24934;52.752;6.964;2023-05-29T13:47:16;20.80;97.10
39219;DHT22;24934;52.752;6.964;2023-05-29T13:49:42;21.00;97.60
39219;DHT22;24934;52.752;6.964;2023-05-29T13:52:08;21.10;98.00
39219;DHT22;24934;52.752;6.964;2023-05-29T13:54:34;21.00;96.70
39219;DHT22;24934;52.752;6.964;2023-05-29T13:57:03;21.10;96.70
39219;DHT22;24934;52.752;6.964;2023-05-29T13:59:31;21.20;97.10
39219;DHT22;24934;52.752;6.964;2023-05-29T14:01:57;21.50;97.00
39219;DHT22;24934;52.752;6.964;2023-05-29T14:04:23;21.40;95.70
39219;DHT22;24934;52.752;6.964;2023-05-29T14:06:49;21.30;96.40
39219;DHT22;24934;52.752;6.964;2023-05-29T14:09:14;21.40;96.60
39219;DHT22;24934;52.752;6.964;2023-05-29T14:11:40;21.40;95.10
39219;DHT22;24934;52.752;6.964;2023-05-29T14:14:06;21.40;95.30
39219;DHT22;24934;52.752;6.964;2023-05-29T14:16:33;21.40;94.80
39219;DHT22;24934;52.752;6.964;2023-05-29T14:18:59;21.30;95.70
39219;DHT22;24934;52.752;6.964;2023-05-29T14:21:25;21.60;96.30
39219;DHT22;24934;52.752;6.964;2023-05-29T14:23:51;21.70;96.80
39219;DHT22;24934;52.752;6.964;2023-05-29T14:26:17;21.50;96.70
39219;DHT22;24934;52.752;6.964;2023-05-29T14:28:43;21.20;95.60
39219;DHT22;24934;52.752;6.964;2023-05-29T14:31:09;21.10;95.60
39219;DHT22;24934;52.752;6.964;2023-05-29T14:33:34;20.90;96.40
39219;DHT22;24934;52.752;6.964;2023-05-29T14:36:02;21.10;96.60
39219;DHT22;24934;52.752;6.964;2023-05-29T14:38:28;21.10;95.50
39219;DHT22;24934;52.752;6.964;2023-05-29T14:40:53;20.80;95.00
39219;DHT22;24934;52.752;6.964;2023-05-29T14:43:19;20.50;95.90
39219;DHT22;24934;52.752;6.964;2023-05-29T14:45:44;20.50;97.50
39219;DHT22;24934;52.752;6.964;2023-05-29T14:48:10;20.70;96.90
39219;DHT22;24934;52.752;6.964;2023-05-29T14:50:41;20.90;95.90
39219;DHT22;24934;52.752;6.964;2023-05-29T14:53:06;20.80;95.30
39219;DHT22;24934;52.752;6.964;2023-05-29T14:55:32;21.20;94.50
39219;DHT22;24934;52.752;6.964;2023-05-29T14:58:05;21.00;95.00
39219;DHT22;24934;52.752;6.964;2023-05-29T15:00:31;21.10;94.90
39219;DHT22;24934;52.752;6.964;2023-05-29T15:02:57;20.90;94.60
39219;DHT22;24934;52.752;6.964;2023-05-29T15:05:25;20.80;94.70
39219;DHT22;24934;52.752;6.964;2023-05-29T15:07:52;20.70;94.70
39219;DHT22;24934;52.752;6.964;2023-05-29T15:10:20;20.40;95.00
39219;DHT22;24934;52.752;6.964;2023-05-29T15:12:45;20.40;95.60
39219;DHT22;24934;52.752;6.964;2023-05-29T15:15:11;20.30;94.80
39219;DHT22;24934;52.752;6.964;2023-05-29T15:17:37;20.00;94.00
39219;DHT22;24934;52.752;6.964;2023-05-29T15:20:04;19.70;94.40
39219;DHT22;24934;52.752;6.964;2023-05-29T15:22:31;19.90;95.50
39219;DHT22;24934;52.752;6.964;2023-05-29T15:24:56;19.60;95.30
39219;DHT22;24934;52.752;6.964;2023-05-29T15:27:22;19.10;95.60
39219;DHT22;24934;52.752;6.964;2023-05-29T15:29:52;19.20;96.60
39219;DHT22;24934;52.752;6.964;2023-05-29T15:32:18;19.20;98.00
39219;DHT22;24934;52.752;6.964;2023-05-29T15:34:43;18.90;97.50
39219;DHT22;24934;52.752;6.964;2023-05-29T15:37:09;18.80;97.90
39219;DHT22;24934;52.752;6.964;2023-05-29T15:39:34;18.80;98.10
39219;DHT22;24934;52.752;6.964;2023-05-29T15:42:00;18.60;97.70
39219;DHT22;24934;52.752;6.964;2023-05-29T15:44:26;18.60;97.70
39219;DHT22;24934;52.752;6.964;2023-05-29T15:46:51;18.50;98.10
39219;DHT22;24934;52.752;6.964;2023-05-29T15:49:17;18.70;97.30
39219;DHT22;24934;52.752;6.964;2023-05-29T15:51:42;18.50;95.70
39219;DHT22;24934;52.752;6.964;2023-05-29T15:54:08;18.50;97.10
39219;DHT22;24934;52.752;6.964;2023-05-29T15:56:34;18.40;95.30
39219;DHT22;24934;52.752;6.964;2023-05-29T15:58:59;18.40;96.60
39219;DHT22;24934;52.752;6.964;2023-05-29T16:01:25;18.50;96.40
39219;DHT22;24934;52.752;6.964;2023-05-29T16:03:51;18.30;96.10